Kake, AK (99830)

3:44 PM AKDT on April 18, 2015 (GMT -0800)
Kake | | Change Station
CLOSE
Current Station
Airport
Location: Kake,
Elevation: 171 ft
Nearby Weather Stations

Elev 171 ft 56.96 °N, 133.91 °W | Updated 8 minutes ago

Mostly Cloudy
Mostly Cloudy
46 °F
Feels Like 40 °F
N
15
Wind Variable Wind from SE
Gusts 22 mph

Today
High -- | Low -- °F
--% Chance of Precip.
Yesterday
High -- | Low -- °F
Precip. -- in
5:40 AM 8:11 PM
New Moon, 0% visible
Pressure 30.43 in
Visibility 10.0 miles
Clouds Few 2500 ft
Scattered Clouds 3100 ft
Mostly Cloudy 3800 ft
Windchill 40 °F
Dew Point 39 °F
Humidity 76%
Rainfall 0.08 in
Snow Depth Not available.
UV 2 out of 12
Pollen Not available.
Air Quality Not available.
Flu Activity Sporadic
METAR PAFE 182336Z AUTO 14013G19KT 10SM FEW025 SCT031 BKN038 08/04 A3043 RMK AO1

More Conditions Fewer Conditions

Pressure 30.43 in
Visibility 10.0 miles
Clouds Few 2500 ft
Scattered Clouds 3100 ft
Mostly Cloudy 3800 ft
Windchill 40 °F
Dew Point 39 °F
Humidity 76%
Rainfall 0.08 in
Snow Depth Not available.
UV 2 out of 12
Pollen Not available.
Air Quality Not available.
Flu Activity Sporadic
METAR PAFE 182336Z AUTO 14013G19KT 10SM FEW025 SCT031 BKN038 08/04 A3043 RMK AO1

More Conditions Fewer Conditions

10-Day Weather Forecast

Almanac

Astronomy

Apr. 18, 2015 Rise Set
Actual Time
Civil Twilight
Nautical Twilight
Astronomical Twilight
Moon
Length of Visible Light
Length of Day
Tomorrow will be .
, % of the Moon is Illuminated

Today's Extremes

State Highs State Lows

Community

WunderPhotos

Upload Photos

1,814,580 photos uploaded!

WunderBlogs® & News

Nearby

Air Quality

  Air Quality AQ Index Pollutant
Not available.

Snow Depth

Station Depth Elevation

Earthquake Activity

City Distance Mag. Time & Date
Minimum magnitude displayed is 2.5.

Coastal Water Temperatures

Place Temperature

Stations

Nearby Weather Stations

Station Location Temp. Windchill Dew Point Humidity Wind Precip. Elev Updated Type